METAR Reports

Area Airport Weather Conditions

KBDL - Windsor Locks, Connecticut, USA
Distance from station: NE 45mi, 72km
Updated: 2:51PM EST, November 14, 2019
Overcast
Overcast
 Wind from N
Wind: N 3 mph , 6 km/h
Temperature: 37°F , 3°C
Dew Point: 19°F , -7°C
Humidity: 48%
Barometer: 30.35 inHg , 1027.8 hPa
Clouds: Overcast
Visibility: 10 miles , 16 km
Cloud details: Few Clouds 3500 ft
Mostly cloudy 12000 ft
Mostly cloudy 20000 ft
Overcast 25000 ft
2019/11/14 19:51 KBDL 141951Z 36003KT 10SM FEW035 BKN120 BKN200 OVC250 03/M07 A3035 RMK AO2 SLP279 T00281067
KDXR - Danbury, Connecticut, USA
Distance from station: SSW 15mi, 24km
Updated: 2:53PM EST, November 14, 2019
Clear
Clear
 Wind from SSW
Wind: SSW 8 mph , 13 km/h
Temperature: 39°F , 4°C
Wind Chill: 33°F , 1°C
Dew Point: 23°F , -5°C
Humidity: 52%
Barometer: 30.33 inHg , 1027.1 hPa
Clouds: Clear
Visibility: 10 miles , 16 km
2019/11/14 19:53 KDXR 141953Z 21007KT 10SM CLR 04/M05 A3033 RMK AO2 SLP275 T00391050
 
KOXC - Oxford/Waterbury, Connecticut, USA
Distance from station: ESE 16mi, 26km
Updated: 2:51PM EST, November 14, 2019
Clear
Clear
 Wind from SSW
Wind: SSW 7 mph , 11 km/h
Temperature: 37°F , 3°C
Wind Chill: 32°F , 0°C
Dew Point: 27°F , -3°C
Humidity: 65%
Barometer: 30.32 inHg , 1026.8 hPa
Clouds: Clear
Visibility: 10 miles , 16 km
2019/11/14 19:51 KOXC 141951Z 20006KT 10SM CLR 03/M03 A3032 RMK AO2 SLP288 T00331033
KPOU - Poughkeepsie, New York, USA
Distance from station: W 25mi, 40km
Updated: 2:53PM EST, November 14, 2019
Overcast
Overcast
 Wind from varies
Wind: varies 6 mph , 9 km/h
Temperature: 39°F , 4°C
Wind Chill: 35°F , 2°C
Dew Point: 16°F , -9°C
Humidity: 39%
Barometer: 30.33 inHg , 1027.1 hPa
Clouds: Overcast
Visibility: 10 miles , 16 km
Cloud details: Overcast 12000 ft
2019/11/14 19:53 KPOU 141953Z VRB05KT 10SM OVC120 04/M09 A3033 RMK AO2 SLP268 T00441089
 
KMMK - Meriden, Connecticut, USA
Distance from station: E 30mi, 48km
Updated: 2:53PM EST, November 14, 2019
Clear
Clear
 Wind from SSW
Wind: SSW 8 mph , 13 km/h
Temperature: 41°F , 5°C
Wind Chill: 36°F , 2°C
Dew Point: 27°F , -3°C
Humidity: 57%
Barometer: 30.34 inHg , 1027.4 hPa
Clouds: Clear
Visibility: 10 miles , 16 km
2019/11/14 19:53 KMMK 141953Z AUTO 20007KT 10SM CLR 05/M03 A3034 RMK AO2 SLP276 T00501028 $
KBDR - Bridgeport, Connecticut, USA
Distance from station: SSE 32mi, 51km
Updated: 2:52PM EST, November 14, 2019
Clear
Clear
 Wind from calm
Wind: Calm
Temperature: 43°F , 6°C
Dew Point: 28°F , -2°C
Humidity: 57%
Barometer: 30.35 inHg , 1027.8 hPa
Clouds: Clear
Visibility: 10 miles , 16 km
2019/11/14 19:52 KBDR 141952Z 00000KT 10SM CLR 06/M02 A3035 RMK AO2 SLP276 T00561022
 
KHVN - New Haven/Tweed, Connecticut, USA
Distance from station: SE 35mi, 57km
Updated: 2:53PM EST, November 14, 2019
Mostly cloudy
Mostly cloudy
 Wind from calm
Wind: Calm
Temperature: 45°F , 7°C
Dew Point: 30°F , -1°C
Humidity: 57%
Barometer: 30.35 inHg , 1027.8 hPa
Clouds: Mostly cloudy
Visibility: 10 miles , 16 km
Cloud details: Partly cloudy 4000 ft
Mostly cloudy 15000 ft
2019/11/14 19:53 KHVN 141953Z 00000KT 10SM SCT040 BKN150 07/M01 A3035 RMK AO2 SLP276 T00671006
KSWF - Newburgh/Stewart, New York, USA
Distance from station: W 35mi, 57km
Updated: 2:45PM EST, November 14, 2019
Mostly cloudy
Mostly cloudy
 Wind from SSW
Wind: SSW 12 mph , 19 km/h
Temperature: 37°F , 3°C
Wind Chill: 29°F , -2°C
Dew Point: 19°F , -7°C
Humidity: 48%
Barometer: 30.32 inHg , 1026.8 hPa
Clouds: Mostly cloudy
Visibility: 10 miles , 16 km
Cloud details: Mostly cloudy 12000 ft
2019/11/14 19:45 KSWF 141945Z 21010KT 10SM BKN120 03/M07 A3032
 
KHPN - White Plains, New York, USA
Distance from station: SSW 38mi, 62km
Updated: 2:56PM EST, November 14, 2019
Few Clouds
Few Clouds
 Wind from S
Wind: S 7 mph , 11 km/h
Temperature: 41°F , 5°C
Wind Chill: 36°F , 2°C
Dew Point: 19°F , -7°C
Humidity: 42%
Barometer: 30.32 inHg , 1026.8 hPa
Clouds: Few Clouds
Visibility: 10 miles , 16 km
Cloud details: Few Clouds 2500 ft
2019/11/14 19:56 KHPN 141956Z 18006KT 10SM FEW025 05/M07 A3032 RMK AO2 SLP274 T00501067
KHFD - Hartford/Brainar, Connecticut, USA
Distance from station: ENE 41mi, 65km
Updated: 2:53PM EST, November 14, 2019
Few Clouds
Few Clouds
 Wind from calm
Wind: Calm
Temperature: 39°F , 4°C
Dew Point: 25°F , -4°C
Humidity: 56%
Barometer: 30.35 inHg , 1027.8 hPa
Clouds: Few Clouds
Visibility: 10 miles , 16 km
Cloud details: Few Clouds 2900 ft
2019/11/14 19:53 KHFD 141953Z 00000KT 10SM FEW029 04/M04 A3035 RMK AO2 SLP277 T00391044